createdAt,value
2017-03-31T00:00:19.748Z,18.98
2017-03-31T00:01:00.390Z,19.14
2017-03-31T00:01:41.024Z,19.17
2017-03-31T00:02:21.658Z,19.06
2017-03-31T00:03:02.288Z,19.02
2017-03-31T00:03:42.924Z,19.13
2017-03-31T00:04:23.550Z,19.08
2017-03-31T00:05:04.199Z,19.06
2017-03-31T00:05:44.847Z,18.97
2017-03-31T00:06:25.487Z,19.14
2017-03-31T00:07:06.129Z,19.14
2017-03-31T00:07:46.770Z,19.01
2017-03-31T00:08:27.414Z,19.05
2017-03-31T00:09:08.054Z,18.99
2017-03-31T00:09:48.694Z,19.02
2017-03-31T00:10:29.325Z,18.97
2017-03-31T00:11:09.983Z,19.08
2017-03-31T00:11:51.384Z,19.01
2017-03-31T00:12:32.092Z,19.02
2017-03-31T00:13:12.716Z,18.98
2017-03-31T00:13:53.393Z,18.98
2017-03-31T00:14:33.993Z,19.01
2017-03-31T00:15:14.628Z,18.98
2017-03-31T00:15:55.307Z,19.01
2017-03-31T00:16:35.954Z,18.97
2017-03-31T00:17:16.614Z,19.01
2017-03-31T00:17:57.344Z,18.95
2017-03-31T00:18:37.970Z,18.98
2017-03-31T00:19:18.677Z,18.98
2017-03-31T00:19:59.336Z,19.02
2017-03-31T00:20:39.964Z,19.02
2017-03-31T00:21:20.586Z,19.02
2017-03-31T00:22:01.282Z,19.05
2017-03-31T00:22:41.894Z,19.02
2017-03-31T00:23:22.642Z,19.02
2017-03-31T00:24:03.368Z,18.99
2017-03-31T00:24:43.998Z,18.99
2017-03-31T00:25:24.640Z,18.98
2017-03-31T00:26:05.371Z,19.01
2017-03-31T00:26:46.010Z,18.94
2017-03-31T00:27:26.674Z,18.97
2017-03-31T00:28:07.293Z,18.98
2017-03-31T00:28:48.028Z,18.97
2017-03-31T00:29:28.660Z,18.99
2017-03-31T00:30:09.298Z,18.97
2017-03-31T00:30:49.956Z,18.97
2017-03-31T00:31:30.582Z,18.95
2017-03-31T00:32:11.218Z,19.05
2017-03-31T00:34:10.021Z,18.97
2017-03-31T00:34:50.730Z,19.08
2017-03-31T00:35:31.358Z,18.95
2017-03-31T00:36:12.004Z,19.05
2017-03-31T00:36:52.646Z,18.99
2017-03-31T00:37:33.277Z,19.02
2017-03-31T00:38:13.910Z,18.97
2017-03-31T00:38:54.535Z,18.95
2017-03-31T00:39:35.176Z,18.97
2017-03-31T00:40:15.797Z,19.08
2017-03-31T00:40:56.522Z,18.97
2017-03-31T00:41:37.148Z,18.99
2017-03-31T00:42:17.806Z,19.05
2017-03-31T00:42:58.446Z,18.97
2017-03-31T00:43:39.074Z,18.92
2017-03-31T00:44:19.751Z,19.06
2017-03-31T00:45:00.467Z,19.1
2017-03-31T00:45:41.092Z,18.98
2017-03-31T00:46:21.718Z,18.97
2017-03-31T00:47:02.364Z,19.01
2017-03-31T00:47:43.064Z,19.11
2017-03-31T00:48:23.627Z,19.02
2017-03-31T00:49:04.247Z,19.02
2017-03-31T00:49:44.876Z,18.95
2017-03-31T00:50:25.553Z,19.1
2017-03-31T00:51:06.188Z,19.02
2017-03-31T00:51:46.824Z,19.05
2017-03-31T00:52:27.484Z,18.98
2017-03-31T00:53:08.102Z,19.01
2017-03-31T00:53:48.744Z,18.99
2017-03-31T00:54:29.395Z,18.98
2017-03-31T00:55:10.095Z,19.01
2017-03-31T00:55:50.768Z,19.01
2017-03-31T00:56:31.406Z,18.97
2017-03-31T00:57:12.031Z,19.05
2017-03-31T00:57:52.704Z,19.02
2017-03-31T00:58:33.356Z,18.95
2017-03-31T00:59:14.660Z,18.92
2017-03-31T00:59:55.287Z,18.99
2017-03-31T01:00:35.932Z,18.97
2017-03-31T01:01:16.558Z,19.02
2017-03-31T01:01:57.186Z,19.02
2017-03-31T01:02:37.869Z,18.97
2017-03-31T01:03:18.490Z,19.02
2017-03-31T01:03:59.115Z,18.98
2017-03-31T01:04:39.801Z,19.01
2017-03-31T01:05:20.429Z,18.99
2017-03-31T01:06:01.061Z,18.97
2017-03-31T01:06:41.695Z,18.97
2017-03-31T01:07:22.347Z,18.99
2017-03-31T01:08:02.968Z,19.1
2017-03-31T01:08:43.602Z,19.02
2017-03-31T01:09:24.238Z,18.99
2017-03-31T01:10:04.870Z,18.98
2017-03-31T01:10:45.582Z,18.99
2017-03-31T01:11:26.217Z,19.11
2017-03-31T01:12:06.844Z,19.05
2017-03-31T01:12:47.473Z,18.99
2017-03-31T01:13:28.099Z,18.99
2017-03-31T01:14:08.743Z,18.99
2017-03-31T01:14:49.367Z,18.98
2017-03-31T01:15:30.058Z,18.99
2017-03-31T01:16:10.680Z,18.97
2017-03-31T01:16:51.304Z,18.98
2017-03-31T01:17:31.927Z,18.98
2017-03-31T01:18:12.555Z,18.94
2017-03-31T01:18:53.181Z,19.01
2017-03-31T01:19:34.311Z,18.98
2017-03-31T01:20:15.028Z,18.92
2017-03-31T01:20:55.679Z,18.94
2017-03-31T01:21:36.275Z,19.02
2017-03-31T01:22:16.919Z,18.99
2017-03-31T01:22:57.550Z,19.08
2017-03-31T01:23:38.244Z,18.98
2017-03-31T01:24:18.864Z,19.01
2017-03-31T01:25:00.216Z,19.05
2017-03-31T01:25:40.174Z,18.98
2017-03-31T01:26:20.810Z,19.02
2017-03-31T01:27:01.438Z,18.92
2017-03-31T01:27:42.105Z,18.95
2017-03-31T01:28:22.737Z,18.97
2017-03-31T01:29:03.408Z,19.01
2017-03-31T01:29:43.981Z,18.92
2017-03-31T01:30:24.650Z,18.97
2017-03-31T01:31:05.346Z,18.92
2017-03-31T01:31:45.900Z,18.95
2017-03-31T01:32:26.536Z,18.97
2017-03-31T01:33:07.157Z,19.02
2017-03-31T01:33:47.842Z,18.84
2017-03-31T01:34:28.540Z,18.92
2017-03-31T01:35:09.175Z,18.92
2017-03-31T01:35:49.805Z,18.91
2017-03-31T01:36:30.450Z,18.94
2017-03-31T01:37:11.077Z,18.97
2017-03-31T01:37:51.713Z,18.95
2017-03-31T01:38:32.357Z,19.05
2017-03-31T01:39:12.999Z,18.95
2017-03-31T01:39:53.634Z,18.95
2017-03-31T01:40:34.291Z,18.92
2017-03-31T01:41:14.913Z,18.92
2017-03-31T01:41:55.548Z,18.95
2017-03-31T01:42:36.200Z,18.9
2017-03-31T01:43:16.862Z,18.86
2017-03-31T01:43:57.503Z,18.91
2017-03-31T01:44:38.126Z,18.95
2017-03-31T01:45:18.790Z,18.95
2017-03-31T01:45:59.432Z,18.92
2017-03-31T01:46:40.153Z,18.95
2017-03-31T01:47:20.819Z,18.99
2017-03-31T01:48:01.442Z,19.05
2017-03-31T01:48:42.089Z,18.92
2017-03-31T01:49:22.729Z,18.9
2017-03-31T01:50:03.353Z,18.87
2017-03-31T01:50:44.034Z,18.91
2017-03-31T01:51:24.658Z,18.86
2017-03-31T01:52:05.287Z,18.97
2017-03-31T01:52:45.944Z,18.87
2017-03-31T01:53:26.574Z,18.98
2017-03-31T01:54:07.208Z,18.98
2017-03-31T01:54:47.860Z,18.97
2017-03-31T01:55:28.489Z,18.9
2017-03-31T01:56:09.114Z,18.87
2017-03-31T01:56:49.739Z,18.97
2017-03-31T01:57:30.370Z,18.94
2017-03-31T01:58:11.016Z,18.84
2017-03-31T01:58:51.652Z,18.94
2017-03-31T01:59:32.279Z,18.92
2017-03-31T02:00:12.901Z,18.91
2017-03-31T02:00:53.578Z,18.91
2017-03-31T02:01:34.270Z,18.97
2017-03-31T02:02:14.906Z,18.92
2017-03-31T02:02:55.531Z,18.97
2017-03-31T02:03:36.181Z,18.86
2017-03-31T02:04:16.809Z,18.92
2017-03-31T02:04:57.450Z,18.91
2017-03-31T02:05:38.151Z,18.9
2017-03-31T02:06:18.780Z,18.92
2017-03-31T02:06:59.446Z,18.91
2017-03-31T02:07:40.155Z,18.87
2017-03-31T02:08:20.785Z,18.9
2017-03-31T02:09:01.405Z,18.87
2017-03-31T02:09:42.110Z,18.92
2017-03-31T02:10:22.767Z,18.92
2017-03-31T02:11:03.409Z,18.95
2017-03-31T02:11:44.120Z,18.91
2017-03-31T02:12:24.808Z,18.94
2017-03-31T02:13:05.436Z,18.95
2017-03-31T02:13:46.060Z,18.99
2017-03-31T02:14:26.721Z,18.87
2017-03-31T02:15:07.349Z,18.91
2017-03-31T02:15:48.008Z,18.87
2017-03-31T02:16:28.726Z,18.91
2017-03-31T02:17:09.373Z,18.87
2017-03-31T02:17:50.009Z,18.91
2017-03-31T02:18:30.635Z,18.87
2017-03-31T02:19:11.270Z,18.83
2017-03-31T02:19:51.965Z,18.92
2017-03-31T02:20:32.670Z,18.97
2017-03-31T02:21:13.349Z,18.94
2017-03-31T02:21:53.913Z,18.9
2017-03-31T02:22:34.591Z,18.92
2017-03-31T02:23:15.295Z,18.91
2017-03-31T02:23:55.938Z,18.9
2017-03-31T02:24:36.623Z,18.92
2017-03-31T02:25:17.240Z,18.95
2017-03-31T02:25:57.862Z,18.92
2017-03-31T02:26:38.490Z,18.92
2017-03-31T02:27:19.183Z,18.91
2017-03-31T02:27:59.807Z,18.91
2017-03-31T02:28:40.505Z,18.91
2017-03-31T02:29:21.253Z,18.97
2017-03-31T02:30:01.881Z,18.91
2017-03-31T02:30:42.607Z,18.84
2017-03-31T02:31:23.227Z,18.91
2017-03-31T02:32:03.862Z,18.98
2017-03-31T02:32:44.491Z,18.97
2017-03-31T02:33:25.125Z,18.87
2017-03-31T02:34:05.758Z,18.9
2017-03-31T02:34:46.430Z,18.95
2017-03-31T02:35:27.058Z,18.95
2017-03-31T02:36:07.691Z,18.86
2017-03-31T02:36:48.375Z,18.92
2017-03-31T02:37:29.057Z,18.92
2017-03-31T02:38:09.686Z,18.84
2017-03-31T02:38:50.317Z,18.91
2017-03-31T02:39:31.059Z,18.91
2017-03-31T02:40:11.718Z,18.87
2017-03-31T02:40:52.359Z,18.9
2017-03-31T02:41:32.995Z,18.9
2017-03-31T02:42:13.615Z,18.86
2017-03-31T02:42:54.244Z,18.98
2017-03-31T02:43:34.871Z,18.97
2017-03-31T02:44:15.504Z,18.92
2017-03-31T02:44:56.126Z,18.94
2017-03-31T02:45:36.793Z,18.92
2017-03-31T02:46:17.413Z,18.9
2017-03-31T02:46:58.041Z,18.87
2017-03-31T02:47:38.713Z,18.83
2017-03-31T02:48:19.335Z,18.83
2017-03-31T02:48:59.978Z,18.84
2017-03-31T02:49:40.639Z,18.83
2017-03-31T02:50:21.261Z,18.87
2017-03-31T02:51:01.882Z,18.86
2017-03-31T02:51:42.589Z,18.84
2017-03-31T02:52:23.219Z,18.91
2017-03-31T02:53:03.848Z,18.82
2017-03-31T02:53:44.497Z,18.86
2017-03-31T02:54:25.221Z,18.91
2017-03-31T02:55:05.864Z,18.91
2017-03-31T02:55:46.521Z,18.92
2017-03-31T02:56:27.153Z,18.9
2017-03-31T02:57:07.792Z,18.84
2017-03-31T02:57:48.432Z,18.91
2017-03-31T02:58:29.079Z,18.9
2017-03-31T02:59:09.714Z,18.95
2017-03-31T02:59:50.926Z,18.87
2017-03-31T03:00:31.558Z,18.87
2017-03-31T03:01:12.185Z,18.83
2017-03-31T03:01:52.811Z,18.87
2017-03-31T03:02:33.447Z,18.87
2017-03-31T03:03:14.068Z,18.9
2017-03-31T03:03:54.701Z,18.87
2017-03-31T03:04:35.341Z,18.86
2017-03-31T03:05:15.980Z,18.87
2017-03-31T03:05:56.690Z,18.86
2017-03-31T03:06:37.324Z,18.9
2017-03-31T03:07:17.976Z,18.9
2017-03-31T03:07:58.664Z,18.86
2017-03-31T03:08:39.293Z,18.87
2017-03-31T03:09:19.981Z,18.94
2017-03-31T03:10:00.607Z,18.99
2017-03-31T03:10:41.243Z,18.94
2017-03-31T03:11:21.936Z,18.94
2017-03-31T03:12:02.659Z,18.87
2017-03-31T03:12:43.341Z,18.9
2017-03-31T03:13:24.014Z,18.86
2017-03-31T03:14:04.714Z,18.83
2017-03-31T03:14:45.341Z,18.87
2017-03-31T03:15:25.965Z,18.86
2017-03-31T03:16:06.601Z,18.86
2017-03-31T03:16:47.233Z,18.84
2017-03-31T03:17:27.854Z,18.86
2017-03-31T03:18:08.481Z,18.83
2017-03-31T03:18:49.118Z,18.97
2017-03-31T03:19:29.746Z,18.84
2017-03-31T03:20:10.394Z,18.9
2017-03-31T03:20:51.020Z,18.82
2017-03-31T03:21:31.643Z,18.84
2017-03-31T03:22:12.276Z,18.87
2017-03-31T03:22:52.909Z,18.84
2017-03-31T03:23:33.552Z,18.92
2017-03-31T03:24:14.206Z,18.84
2017-03-31T03:24:54.826Z,18.9
2017-03-31T03:25:35.462Z,18.92
2017-03-31T03:26:16.087Z,18.87
2017-03-31T03:26:56.769Z,18.9
2017-03-31T03:27:37.411Z,18.86
2017-03-31T03:28:18.030Z,18.91
2017-03-31T03:28:58.680Z,18.87
2017-03-31T03:29:39.309Z,18.87
2017-03-31T03:30:20.083Z,18.92
2017-03-31T03:31:00.724Z,18.95
2017-03-31T03:31:41.352Z,18.91
2017-03-31T03:32:21.978Z,18.83
2017-03-31T03:33:02.652Z,18.84
2017-03-31T03:33:43.279Z,18.95
2017-03-31T03:34:23.906Z,18.84
2017-03-31T03:35:04.526Z,18.87
2017-03-31T03:35:45.149Z,18.87
2017-03-31T03:36:25.771Z,18.92
2017-03-31T03:37:06.435Z,18.87
2017-03-31T03:37:47.054Z,18.86
2017-03-31T03:38:27.696Z,18.9
2017-03-31T03:39:08.319Z,18.86
2017-03-31T03:39:48.958Z,18.87
2017-03-31T03:40:29.609Z,18.82
2017-03-31T03:41:10.263Z,18.82
2017-03-31T03:41:50.862Z,18.82
2017-03-31T03:42:31.586Z,18.83
2017-03-31T03:43:12.269Z,18.9
2017-03-31T03:43:52.896Z,18.9
2017-03-31T03:44:33.511Z,18.94
2017-03-31T03:45:14.135Z,18.86
2017-03-31T03:45:54.763Z,18.86
2017-03-31T03:46:35.393Z,18.91
2017-03-31T03:47:16.027Z,18.86
2017-03-31T03:47:56.645Z,18.83
2017-03-31T03:48:37.278Z,18.91
2017-03-31T03:49:17.950Z,18.86
2017-03-31T03:49:58.577Z,18.99
2017-03-31T03:50:39.204Z,18.86
2017-03-31T03:51:19.904Z,18.86
2017-03-31T03:52:00.522Z,18.87
2017-03-31T03:52:41.150Z,18.86
2017-03-31T03:53:21.829Z,18.97
2017-03-31T03:54:02.458Z,18.8
2017-03-31T03:54:43.119Z,18.95
2017-03-31T03:55:23.757Z,18.82
2017-03-31T03:56:04.375Z,18.84
2017-03-31T03:56:45.007Z,18.84
2017-03-31T03:57:25.638Z,18.8
2017-03-31T03:58:06.261Z,18.79
2017-03-31T03:58:46.886Z,18.91
2017-03-31T03:59:27.518Z,18.86
2017-03-31T04:00:08.139Z,18.86
2017-03-31T04:00:48.816Z,18.86
2017-03-31T04:01:29.547Z,18.82
2017-03-31T04:02:10.173Z,18.83
2017-03-31T04:02:50.837Z,18.83
2017-03-31T04:03:31.539Z,18.86
2017-03-31T04:04:12.168Z,18.86
2017-03-31T04:04:52.799Z,18.91
2017-03-31T04:05:33.474Z,18.84
2017-03-31T04:06:14.123Z,18.79
2017-03-31T04:06:54.727Z,18.86
2017-03-31T04:07:35.428Z,18.8
2017-03-31T04:08:16.084Z,18.91
2017-03-31T04:08:56.732Z,18.84
2017-03-31T04:09:37.460Z,18.82
2017-03-31T04:10:18.074Z,18.87
2017-03-31T04:10:58.698Z,18.82
2017-03-31T04:11:39.401Z,18.82
2017-03-31T04:12:20.059Z,18.9
2017-03-31T04:13:00.694Z,18.79
2017-03-31T04:13:41.331Z,18.74
2017-03-31T04:14:22.052Z,18.91
2017-03-31T04:15:02.683Z,18.82
2017-03-31T04:15:43.354Z,18.74
2017-03-31T04:16:24.076Z,18.79
2017-03-31T04:17:04.742Z,18.82
2017-03-31T04:17:45.383Z,18.82
2017-03-31T04:18:26.105Z,18.8
2017-03-31T04:19:06.734Z,18.82
2017-03-31T04:19:47.364Z,18.79
2017-03-31T04:20:28.057Z,18.87
2017-03-31T04:21:08.775Z,18.77
2017-03-31T04:21:49.410Z,18.79
2017-03-31T04:22:30.081Z,18.82
2017-03-31T04:23:10.810Z,18.84
2017-03-31T04:23:51.487Z,18.8
2017-03-31T04:24:32.104Z,18.79
2017-03-31T04:25:12.764Z,18.82
2017-03-31T04:25:53.414Z,18.8
2017-03-31T04:26:34.037Z,18.79
2017-03-31T04:27:14.664Z,18.8
2017-03-31T04:27:55.329Z,18.8
2017-03-31T04:28:35.970Z,18.87
2017-03-31T04:29:16.626Z,18.86
2017-03-31T04:29:57.359Z,18.82
2017-03-31T04:30:37.962Z,18.91
2017-03-31T04:31:18.645Z,18.84
2017-03-31T04:31:59.284Z,18.84
2017-03-31T04:32:39.903Z,18.84
2017-03-31T04:33:20.527Z,18.87
2017-03-31T04:34:01.183Z,18.82
2017-03-31T04:34:41.812Z,18.77
2017-03-31T04:35:22.438Z,18.8
2017-03-31T04:36:03.088Z,18.83
2017-03-31T04:36:43.718Z,18.77
2017-03-31T04:37:24.354Z,18.82
2017-03-31T04:38:05.042Z,18.83
2017-03-31T04:38:45.671Z,18.77
2017-03-31T04:39:26.302Z,18.74
2017-03-31T04:40:06.971Z,18.77
2017-03-31T04:40:47.592Z,18.76
2017-03-31T04:41:28.215Z,18.72
2017-03-31T04:42:08.898Z,18.8
2017-03-31T04:42:49.518Z,18.87
2017-03-31T04:43:30.143Z,18.76
2017-03-31T04:44:10.895Z,18.74
2017-03-31T04:44:51.520Z,18.77
2017-03-31T04:45:32.157Z,18.87
2017-03-31T04:46:12.784Z,18.79
2017-03-31T04:46:53.416Z,18.72
2017-03-31T04:47:34.146Z,18.8
2017-03-31T04:48:14.773Z,18.82
2017-03-31T04:48:55.403Z,18.8
2017-03-31T04:49:36.033Z,18.74
2017-03-31T04:50:16.707Z,18.76
2017-03-31T04:50:57.341Z,18.74
2017-03-31T04:51:37.959Z,18.76
2017-03-31T04:52:18.578Z,18.72
2017-03-31T04:52:59.217Z,18.76
2017-03-31T04:53:39.839Z,18.77
2017-03-31T04:54:20.473Z,18.77
2017-03-31T04:55:01.099Z,18.79
2017-03-31T04:55:41.771Z,18.8
2017-03-31T04:56:22.415Z,18.79
2017-03-31T04:57:03.044Z,18.8
2017-03-31T04:57:43.675Z,18.77
2017-03-31T04:58:24.424Z,18.74
2017-03-31T04:59:05.143Z,18.68
2017-03-31T04:59:45.782Z,18.77
2017-03-31T05:00:26.494Z,18.8
2017-03-31T05:01:07.120Z,18.77
2017-03-31T05:01:47.753Z,18.73
2017-03-31T05:02:28.374Z,18.79
2017-03-31T05:03:09.115Z,18.77
2017-03-31T05:03:49.747Z,18.76
2017-03-31T05:04:30.384Z,18.74
2017-03-31T05:05:11.017Z,18.74
2017-03-31T05:05:51.652Z,18.76
2017-03-31T05:06:32.348Z,18.77
2017-03-31T05:07:12.981Z,18.79
2017-03-31T05:07:53.625Z,18.76
2017-03-31T05:08:34.318Z,18.79
2017-03-31T05:09:14.944Z,18.74
2017-03-31T05:09:55.579Z,18.82
2017-03-31T05:10:36.201Z,18.79
2017-03-31T05:11:16.829Z,18.7
2017-03-31T05:11:57.468Z,18.79
2017-03-31T05:12:38.150Z,18.74
2017-03-31T05:13:18.784Z,18.77
2017-03-31T05:13:59.479Z,18.77
2017-03-31T05:14:40.031Z,18.77
2017-03-31T05:15:20.679Z,18.76
2017-03-31T05:16:01.324Z,18.76
2017-03-31T05:16:41.935Z,18.79
2017-03-31T05:17:22.589Z,18.7
2017-03-31T05:18:03.221Z,18.77
2017-03-31T05:18:43.854Z,18.76
2017-03-31T05:19:24.501Z,18.76
2017-03-31T05:20:05.126Z,18.74
2017-03-31T05:20:45.779Z,18.73
2017-03-31T05:21:26.470Z,18.74
2017-03-31T05:22:07.099Z,18.74
2017-03-31T05:22:47.716Z,18.73
2017-03-31T05:23:28.340Z,18.76
2017-03-31T05:24:08.969Z,18.7
2017-03-31T05:24:49.631Z,18.76
2017-03-31T05:25:30.319Z,18.73
2017-03-31T05:26:11.086Z,18.73
2017-03-31T05:26:51.721Z,18.77
2017-03-31T05:27:32.396Z,18.77
2017-03-31T05:28:13.024Z,18.74
2017-03-31T05:28:53.644Z,18.77
2017-03-31T05:29:34.315Z,18.8
2017-03-31T05:30:15.007Z,18.76
2017-03-31T05:30:55.637Z,18.77
2017-03-31T05:31:36.332Z,18.74
2017-03-31T05:32:17.053Z,18.77
2017-03-31T05:32:57.723Z,18.76
2017-03-31T05:33:38.372Z,18.7
2017-03-31T05:34:19.083Z,18.76
2017-03-31T05:34:59.698Z,18.74
2017-03-31T05:35:40.327Z,18.72
2017-03-31T05:36:20.950Z,18.76
2017-03-31T05:37:01.626Z,18.77
2017-03-31T05:37:42.264Z,18.73
2017-03-31T05:38:22.897Z,18.74
2017-03-31T05:39:03.520Z,18.73
2017-03-31T05:39:44.142Z,18.73
2017-03-31T05:40:24.864Z,18.72
2017-03-31T05:41:05.507Z,18.72
2017-03-31T05:41:46.132Z,18.67
2017-03-31T05:42:26.759Z,18.64
2017-03-31T05:43:07.399Z,18.7
2017-03-31T05:43:48.024Z,18.68
2017-03-31T05:44:28.650Z,18.72
2017-03-31T05:45:09.333Z,18.64
2017-03-31T05:45:49.966Z,18.65
2017-03-31T05:46:30.593Z,18.64
2017-03-31T05:47:11.259Z,18.65
2017-03-31T05:47:51.900Z,18.62
2017-03-31T05:48:32.528Z,18.7
2017-03-31T05:49:13.228Z,18.77
2017-03-31T05:49:53.850Z,18.68
2017-03-31T05:50:34.486Z,18.65
2017-03-31T05:51:15.115Z,18.67
2017-03-31T05:51:55.751Z,18.72
2017-03-31T05:52:36.394Z,18.7
2017-03-31T05:53:17.088Z,18.65
2017-03-31T05:53:57.716Z,18.74
2017-03-31T05:54:38.374Z,18.7
2017-03-31T05:55:19.027Z,18.67
2017-03-31T05:55:59.655Z,18.64
2017-03-31T05:56:40.299Z,18.67
2017-03-31T05:57:20.983Z,18.68
2017-03-31T05:58:01.615Z,18.72
2017-03-31T05:58:42.281Z,18.7
2017-03-31T05:59:22.900Z,18.65
2017-03-31T06:00:03.524Z,18.64
2017-03-31T06:00:44.152Z,18.74
2017-03-31T06:01:24.843Z,18.68
2017-03-31T06:02:05.464Z,18.64
2017-03-31T06:02:46.126Z,18.62
2017-03-31T06:03:26.823Z,18.62
2017-03-31T06:04:07.499Z,18.72
2017-03-31T06:04:48.133Z,18.72
2017-03-31T06:05:28.840Z,18.72
2017-03-31T06:06:09.476Z,18.68
2017-03-31T06:06:50.106Z,18.67
2017-03-31T06:07:30.798Z,18.73
2017-03-31T06:08:11.522Z,18.67
2017-03-31T06:08:52.148Z,18.65
2017-03-31T06:09:32.827Z,18.62
2017-03-31T06:10:13.477Z,18.7
2017-03-31T06:10:54.107Z,18.7
2017-03-31T06:11:34.754Z,18.65
2017-03-31T06:12:15.463Z,18.67
2017-03-31T06:12:56.138Z,18.7
2017-03-31T06:13:36.777Z,18.7
2017-03-31T06:14:17.507Z,18.67
2017-03-31T06:14:58.131Z,18.67
2017-03-31T06:15:38.777Z,18.65
2017-03-31T06:16:19.415Z,18.65
2017-03-31T06:17:00.061Z,18.72
2017-03-31T06:17:40.697Z,18.65
2017-03-31T06:18:21.318Z,18.7
2017-03-31T06:19:01.970Z,18.61
2017-03-31T06:19:42.598Z,18.68
2017-03-31T06:20:23.277Z,18.68
2017-03-31T06:21:03.931Z,18.72
2017-03-31T06:21:44.560Z,18.72
2017-03-31T06:22:25.237Z,18.67
2017-03-31T06:23:05.864Z,18.67
2017-03-31T06:23:46.489Z,18.7
2017-03-31T06:24:27.141Z,18.62
2017-03-31T06:25:07.869Z,18.58
2017-03-31T06:25:48.494Z,18.7
2017-03-31T06:26:29.209Z,18.67
2017-03-31T06:27:09.852Z,18.72
2017-03-31T06:27:50.549Z,18.64
2017-03-31T06:28:31.143Z,18.62
2017-03-31T06:29:11.769Z,18.68
2017-03-31T06:29:52.448Z,18.67
2017-03-31T06:30:33.065Z,18.64
2017-03-31T06:31:13.697Z,18.67
2017-03-31T06:31:54.390Z,18.67
2017-03-31T06:32:34.953Z,18.62
2017-03-31T06:33:15.598Z,18.68
2017-03-31T06:33:56.233Z,18.72
2017-03-31T06:34:36.898Z,18.72
2017-03-31T06:35:17.536Z,18.65
2017-03-31T06:35:58.161Z,18.64
2017-03-31T06:36:38.792Z,18.68
2017-03-31T06:37:19.413Z,18.64
2017-03-31T06:38:00.036Z,18.62
2017-03-31T06:38:40.690Z,18.68
2017-03-31T06:39:21.339Z,18.72
2017-03-31T06:40:01.959Z,18.65
2017-03-31T06:40:42.614Z,18.68
2017-03-31T06:41:23.298Z,18.7
2017-03-31T06:42:03.937Z,18.72
2017-03-31T06:42:44.553Z,18.68
2017-03-31T06:43:25.234Z,18.72
2017-03-31T06:44:05.903Z,18.65
2017-03-31T06:44:46.552Z,18.67
2017-03-31T06:45:27.302Z,18.67
2017-03-31T06:46:07.988Z,18.65
2017-03-31T06:46:48.611Z,18.67
2017-03-31T06:47:29.234Z,18.67
2017-03-31T06:48:09.934Z,18.62
2017-03-31T06:48:50.558Z,18.67
2017-03-31T06:49:31.222Z,18.7
2017-03-31T06:50:11.849Z,18.7
2017-03-31T06:50:52.487Z,18.7
2017-03-31T06:51:33.189Z,18.67
2017-03-31T06:52:13.893Z,18.62
2017-03-31T06:52:54.589Z,18.77
2017-03-31T06:53:35.240Z,18.68
2017-03-31T06:54:15.941Z,18.67
2017-03-31T06:54:56.676Z,18.7
2017-03-31T06:55:37.305Z,18.67
2017-03-31T06:56:17.961Z,18.68
2017-03-31T06:56:58.600Z,18.72
2017-03-31T06:57:39.226Z,18.68
2017-03-31T06:58:19.911Z,18.67
2017-03-31T06:59:00.599Z,18.7
2017-03-31T06:59:41.320Z,18.68
2017-03-31T07:00:21.852Z,18.67
2017-03-31T07:01:02.581Z,18.7
2017-03-31T07:01:43.317Z,18.68
2017-03-31T07:02:23.957Z,18.67
2017-03-31T07:03:04.583Z,18.72
2017-03-31T07:03:45.227Z,18.68
2017-03-31T07:04:25.866Z,18.72
2017-03-31T07:05:06.525Z,18.64
2017-03-31T07:05:47.150Z,18.64
2017-03-31T07:06:27.784Z,18.68
2017-03-31T07:07:08.413Z,18.67
2017-03-31T07:07:49.066Z,18.65
2017-03-31T07:08:29.697Z,18.7
2017-03-31T07:09:10.392Z,18.65
2017-03-31T07:09:51.073Z,18.64
2017-03-31T07:10:31.696Z,18.64
2017-03-31T07:11:12.450Z,18.62
2017-03-31T07:11:53.076Z,18.67
2017-03-31T07:12:33.751Z,18.65
2017-03-31T07:13:14.370Z,18.68
2017-03-31T07:13:55.069Z,18.68
2017-03-31T07:14:35.789Z,18.62
2017-03-31T07:15:16.412Z,18.64
2017-03-31T07:15:57.033Z,18.68
2017-03-31T07:16:37.674Z,18.64
2017-03-31T07:17:18.299Z,18.67
2017-03-31T07:17:58.939Z,18.74
2017-03-31T07:18:39.630Z,18.7
2017-03-31T07:19:20.259Z,18.67
2017-03-31T07:20:00.882Z,18.72
2017-03-31T07:20:41.513Z,18.7
2017-03-31T07:21:22.144Z,18.64
2017-03-31T07:22:02.799Z,18.67
2017-03-31T07:22:43.438Z,18.65
2017-03-31T07:23:24.069Z,18.72
2017-03-31T07:24:04.727Z,18.59
2017-03-31T07:24:45.350Z,18.64
2017-03-31T07:25:25.976Z,18.68
2017-03-31T07:26:06.627Z,18.64
2017-03-31T07:26:47.267Z,18.72
2017-03-31T07:27:27.897Z,18.68
2017-03-31T07:28:08.536Z,18.67
2017-03-31T07:28:49.160Z,18.68
2017-03-31T07:29:29.790Z,18.7
2017-03-31T07:30:10.483Z,18.62
2017-03-31T07:30:51.108Z,18.68
2017-03-31T07:31:31.737Z,18.72
2017-03-31T07:32:12.436Z,18.65
2017-03-31T07:32:53.101Z,18.72
2017-03-31T07:33:33.732Z,18.7
2017-03-31T07:34:14.359Z,18.72
2017-03-31T07:34:55.078Z,18.68
2017-03-31T07:35:35.700Z,18.67
2017-03-31T07:36:16.448Z,18.68
2017-03-31T07:36:57.139Z,18.68
2017-03-31T07:37:37.767Z,18.67
2017-03-31T07:38:18.392Z,18.67
2017-03-31T07:38:59.052Z,18.68
2017-03-31T07:39:39.679Z,18.65
2017-03-31T07:40:20.307Z,18.62
2017-03-31T07:41:00.950Z,18.67
2017-03-31T07:41:41.580Z,18.7
2017-03-31T07:42:22.204Z,18.68
2017-03-31T07:43:02.829Z,18.67
2017-03-31T07:43:43.497Z,18.7
2017-03-31T07:44:24.118Z,18.62
2017-03-31T07:45:04.757Z,18.65
2017-03-31T07:45:45.438Z,18.68
2017-03-31T07:46:26.004Z,18.67
2017-03-31T07:47:06.624Z,18.72
2017-03-31T07:47:47.259Z,18.72
2017-03-31T07:48:28.564Z,18.67
2017-03-31T07:49:09.191Z,18.72
2017-03-31T07:49:49.873Z,18.65
2017-03-31T07:50:30.568Z,18.67
2017-03-31T07:51:11.214Z,18.68
2017-03-31T07:51:51.835Z,18.67
2017-03-31T07:52:32.528Z,18.64
2017-03-31T07:53:13.202Z,18.65
2017-03-31T07:53:53.826Z,18.67
2017-03-31T07:54:34.461Z,18.58
2017-03-31T07:55:15.097Z,18.62
2017-03-31T07:55:55.720Z,18.61
2017-03-31T07:56:36.438Z,18.65
2017-03-31T07:57:17.061Z,18.7
2017-03-31T07:57:57.692Z,18.64
2017-03-31T07:58:38.379Z,18.67
2017-03-31T07:59:19.012Z,18.68
2017-03-31T07:59:59.640Z,18.64
2017-03-31T08:00:40.326Z,18.64
2017-03-31T08:01:20.952Z,18.65
2017-03-31T08:02:01.587Z,18.67
2017-03-31T08:02:42.221Z,18.65
2017-03-31T08:03:22.861Z,18.72
2017-03-31T08:04:03.491Z,18.65
2017-03-31T08:04:44.142Z,18.72
2017-03-31T08:05:24.856Z,18.68
2017-03-31T08:06:05.482Z,18.62
2017-03-31T08:06:46.203Z,18.62
2017-03-31T08:07:26.831Z,18.67
2017-03-31T08:08:07.455Z,18.65
2017-03-31T08:08:48.203Z,18.7
2017-03-31T08:09:28.933Z,18.68
2017-03-31T08:10:09.590Z,18.62
2017-03-31T08:10:50.224Z,18.68
2017-03-31T08:11:30.861Z,18.62
2017-03-31T08:12:11.585Z,18.64
2017-03-31T08:12:52.213Z,18.72
2017-03-31T08:13:32.928Z,18.68
2017-03-31T08:14:13.625Z,18.67
2017-03-31T08:14:54.321Z,18.62
2017-03-31T08:15:34.966Z,18.65
2017-03-31T08:16:15.650Z,18.72
2017-03-31T08:16:56.325Z,18.65
2017-03-31T08:17:36.951Z,18.67
2017-03-31T08:18:17.576Z,18.65
2017-03-31T08:18:58.220Z,18.65
2017-03-31T08:19:38.853Z,18.67
2017-03-31T08:20:19.484Z,18.7
2017-03-31T08:21:00.195Z,18.64
2017-03-31T08:21:40.842Z,18.68
2017-03-31T08:22:21.484Z,18.65
2017-03-31T08:23:02.205Z,18.67
2017-03-31T08:23:42.855Z,18.67
2017-03-31T08:24:23.558Z,18.67
2017-03-31T08:25:04.209Z,18.67
2017-03-31T08:25:44.901Z,18.72
2017-03-31T08:26:25.572Z,18.65
2017-03-31T08:27:06.224Z,18.67
2017-03-31T08:27:46.916Z,18.61
2017-03-31T08:28:27.569Z,18.7
2017-03-31T08:29:08.220Z,18.7
2017-03-31T08:29:48.883Z,18.72
2017-03-31T08:30:29.537Z,18.7
2017-03-31T08:31:10.230Z,18.64
2017-03-31T08:31:50.913Z,18.77
2017-03-31T08:32:31.633Z,18.67
2017-03-31T08:33:12.313Z,18.7
2017-03-31T08:33:52.969Z,18.72
2017-03-31T08:34:33.628Z,18.64
2017-03-31T08:35:14.280Z,18.67
2017-03-31T08:35:54.955Z,18.64
2017-03-31T08:36:35.607Z,18.73
2017-03-31T08:37:16.259Z,18.8
2017-03-31T08:37:56.986Z,18.74
2017-03-31T08:38:37.642Z,18.73
2017-03-31T08:39:18.295Z,18.76
2017-03-31T08:39:58.941Z,18.77
2017-03-31T08:40:39.607Z,18.72
2017-03-31T08:41:20.315Z,18.79
2017-03-31T08:42:00.988Z,18.77
2017-03-31T08:42:41.643Z,18.74
2017-03-31T08:43:22.295Z,18.77
2017-03-31T08:44:02.940Z,18.76
2017-03-31T08:44:43.602Z,18.79
2017-03-31T08:45:24.268Z,18.82
2017-03-31T08:46:04.920Z,18.82
2017-03-31T08:46:45.630Z,18.83